Time;durP1;ratioP1;P1;durP2;ratioP2;P2;SDS_P1;SDS_P2;PMS_P1;PMS_P2;Temp;Humidity;BMP_temperature;BMP_pressure;BME280_temperature;BME280_humidity;BME280_pressure;Samples;Min_cycle;Max_cycle;Signal;HPM_P1;HPM_P2
2023/07/15 00:00:14;;;;;;;9.90;5.70;;;28.00;96.70;;;;;;4919968;29;20089;-81
2023/07/15 00:02:45;;;;;;;10.07;5.88;;;27.80;96.70;;;;;;4906300;29;20074;-80
2023/07/15 00:05:20;;;;;;;10.73;6.47;;;27.60;96.70;;;;;;4906154;29;20383;-80
2023/07/15 00:45:40;;;;;;;10.88;6.43;;;27.50;96.70;;;;;;4920697;29;20139;-79
2023/07/15 00:48:19;;;;;;;13.43;6.68;;;27.60;96.70;;;;;;4911248;29;20055;-80
2023/07/15 00:50:48;;;;;;;15.32;6.10;;;27.60;96.70;;;;;;4927298;29;20051;-80
2023/07/15 02:25:58;;;;;;;8.18;4.68;;;25.90;96.70;;;;;;4909629;29;20095;-80
2023/07/15 02:28:34;;;;;;;8.52;4.60;;;26.00;96.70;;;;;;4910088;29;20792;-79
2023/07/15 02:31:09;;;;;;;10.00;5.00;;;26.20;96.70;;;;;;4901739;29;20067;-79
2023/07/15 02:33:38;;;;;;;6.43;4.60;;;26.00;96.70;;;;;;4901065;29;20074;-79
2023/07/15 02:52:38;;;;;;;9.13;4.47;;;26.10;96.70;;;;;;4890983;29;20055;-81
2023/07/15 02:55:07;;;;;;;8.02;4.63;;;26.00;96.70;;;;;;4908411;29;20075;-80
2023/07/15 02:57:36;;;;;;;8.50;4.95;;;25.80;96.70;;;;;;4886569;29;20468;-80
2023/07/15 03:00:11;;;;;;;8.60;4.80;;;25.80;96.70;;;;;;4908586;29;20054;-79
2023/07/15 03:02:39;;;;;;;7.88;4.43;;;25.80;96.70;;;;;;4907834;29;20075;-79
2023/07/15 03:05:08;;;;;;;7.38;4.70;;;25.70;96.70;;;;;;4909515;29;20051;-79
2023/07/15 03:12:05;;;;;;;7.63;4.20;;;25.70;96.70;;;;;;4908773;29;20062;-79
2023/07/15 03:14:34;;;;;;;9.45;5.60;;;25.60;96.70;;;;;;4909316;29;20735;-80
2023/07/15 03:17:02;;;;;;;8.85;4.40;;;25.60;96.70;;;;;;4914799;29;20135;-80
2023/07/15 03:19:32;;;;;;;6.70;4.65;;;25.80;96.70;;;;;;4908956;29;20135;-82
2023/07/15 03:22:00;;;;;;;8.30;4.25;;;25.90;96.70;;;;;;4899436;29;20059;-80
2023/07/15 03:24:29;;;;;;;7.13;4.35;;;25.90;96.70;;;;;;4906987;29;20056;-81
2023/07/15 03:26:57;;;;;;;8.52;4.88;;;25.80;96.70;;;;;;4918499;29;20355;-81
2023/07/15 03:29:26;;;;;;;7.22;4.53;;;25.90;96.70;;;;;;4921066;29;20052;-80
2023/07/15 03:31:54;;;;;;;7.57;4.93;;;25.90;96.70;;;;;;4911614;29;20052;-81
2023/07/15 03:34:22;;;;;;;4.85;4.15;;;25.80;96.70;;;;;;4928345;29;20059;-80
2023/07/15 03:36:53;;;;;;;9.38;5.30;;;25.90;96.70;;;;;;4913617;29;20059;-80
2023/07/15 03:39:23;;;;;;;8.15;4.30;;;25.80;96.70;;;;;;4922604;29;20138;-80
2023/07/15 03:41:51;;;;;;;7.50;4.50;;;25.70;96.70;;;;;;4917028;29;20409;-81
2023/07/15 03:44:18;;;;;;;5.38;4.85;;;25.60;96.70;;;;;;4919609;29;20110;-81
2023/07/15 03:46:48;;;;;;;6.65;4.50;;;25.50;96.70;;;;;;4919902;29;20052;-80
2023/07/15 03:49:16;;;;;;;10.30;5.03;;;25.30;96.70;;;;;;4928248;29;20043;-81
2023/07/15 03:51:44;;;;;;;9.90;5.07;;;25.20;96.70;;;;;;4921247;29;20052;-82
2023/07/15 03:54:11;;;;;;;7.00;4.70;;;25.30;96.70;;;;;;4922335;29;20067;-81
2023/07/15 03:56:40;;;;;;;11.38;4.70;;;25.30;96.70;;;;;;4894755;29;20055;-81
2023/07/15 03:59:08;;;;;;;6.20;4.68;;;25.40;96.70;;;;;;4927787;29;20394;-80
2023/07/15 04:01:36;;;;;;;8.13;4.97;;;25.60;96.70;;;;;;4913437;29;20075;-81
2023/07/15 04:04:08;;;;;;;10.65;5.10;;;25.80;96.70;;;;;;4911251;29;20506;-81
2023/07/15 04:06:36;;;;;;;7.57;4.93;;;25.70;96.70;;;;;;4920521;29;20134;-80
2023/07/15 04:09:07;;;;;;;7.45;5.15;;;25.80;96.70;;;;;;4903040;29;20709;-81
2023/07/15 04:11:35;;;;;;;6.55;5.43;;;25.70;96.70;;;;;;4909915;29;20067;-80
2023/07/15 04:14:02;;;;;;;7.30;5.25;;;25.60;96.70;;;;;;4927143;29;20049;-81
2023/07/15 04:16:30;;;;;;;8.65;5.38;;;25.40;96.70;;;;;;4916155;29;20514;-81
2023/07/15 04:18:58;;;;;;;7.30;4.35;;;25.50;96.70;;;;;;4927212;29;20085;-80
2023/07/15 04:21:27;;;;;;;8.10;5.20;;;25.60;96.70;;;;;;4913983;29;20485;-80
2023/07/15 04:23:55;;;;;;;6.70;4.68;;;25.70;96.70;;;;;;4933079;29;20079;-80
2023/07/15 04:26:27;;;;;;;8.63;4.60;;;25.70;96.70;;;;;;4937407;29;20533;-80
2023/07/15 04:28:54;;;;;;;7.65;5.00;;;25.60;96.70;;;;;;4907881;29;20059;-80
2023/07/15 04:31:23;;;;;;;7.55;4.53;;;25.60;96.70;;;;;;4918826;29;20138;-80
2023/07/15 04:33:51;;;;;;;9.43;4.63;;;25.60;96.70;;;;;;4921411;29;20046;-80
2023/07/15 04:36:20;;;;;;;8.65;4.88;;;25.50;96.70;;;;;;4935993;29;20052;-81
2023/07/15 04:38:49;;;;;;;5.40;4.28;;;25.40;96.70;;;;;;4927085;29;20039;-80
2023/07/15 04:41:17;;;;;;;6.88;4.38;;;25.60;96.70;;;;;;4920178;29;20048;-80
2023/07/15 04:43:45;;;;;;;7.85;5.13;;;25.70;96.70;;;;;;4925255;29;20112;-80
2023/07/15 04:46:14;;;;;;;7.05;4.93;;;25.70;96.70;;;;;;4910657;29;20106;-80
2023/07/15 04:48:43;;;;;;;8.77;5.25;;;25.60;96.70;;;;;;4936345;28;20047;-81
2023/07/15 04:51:11;;;;;;;11.18;6.18;;;25.70;96.70;;;;;;4919154;29;20411;-80
2023/07/15 04:53:43;;;;;;;7.00;4.70;;;25.60;96.70;;;;;;4915473;29;20051;-81
2023/07/15 04:56:12;;;;;;;8.23;5.55;;;25.50;96.70;;;;;;4942544;29;20062;-81
2023/07/15 04:58:40;;;;;;;10.43;5.82;;;25.60;96.70;;;;;;4924687;29;20565;-80
2023/07/15 05:01:08;;;;;;;11.65;5.68;;;25.60;96.70;;;;;;4922126;29;20050;-80
2023/07/15 05:03:36;;;;;;;7.63;4.97;;;25.60;96.70;;;;;;4911090;29;20093;-79
2023/07/15 05:06:04;;;;;;;10.57;5.90;;;25.60;96.70;;;;;;4917321;29;20075;-80
2023/07/15 05:08:32;;;;;;;6.63;5.15;;;25.60;96.70;;;;;;4918717;29;20061;-80
2023/07/15 05:10:59;;;;;;;12.38;6.72;;;25.70;96.70;;;;;;4898759;29;20142;-80
2023/07/15 05:13:29;;;;;;;8.98;5.55;;;25.80;96.70;;;;;;4945750;29;20553;-81
2023/07/15 05:15:56;;;;;;;8.43;4.82;;;25.80;96.70;;;;;;4908228;29;20130;-81
2023/07/15 05:18:24;;;;;;;9.15;5.32;;;25.70;96.70;;;;;;4947318;28;20051;-81
2023/07/15 05:20:52;;;;;;;7.25;5.28;;;25.70;96.70;;;;;;4914025;29;20135;-80
2023/07/15 05:23:21;;;;;;;11.40;5.10;;;25.70;96.70;;;;;;4919672;29;20043;-80
2023/07/15 05:25:49;;;;;;;9.20;5.10;;;25.70;96.70;;;;;;4922104;29;20058;-81
2023/07/15 05:28:17;;;;;;;8.13;4.95;;;25.80;96.70;;;;;;4920464;29;20075;-80
2023/07/15 05:30:46;;;;;;;11.35;5.30;;;25.80;96.70;;;;;;4942988;29;20042;-80
2023/07/15 05:33:14;;;;;;;9.43;5.32;;;25.90;96.70;;;;;;4915901;29;20570;-85
2023/07/15 05:35:42;;;;;;;7.78;4.75;;;25.80;96.70;;;;;;4931241;29;20083;-80
2023/07/15 05:38:09;;;;;;;8.60;5.03;;;25.90;96.70;;;;;;4917279;29;20038;-79
2023/07/15 05:40:40;;;;;;;8.48;5.20;;;26.00;96.70;;;;;;4897597;29;20138;-81
2023/07/15 05:43:08;;;;;;;9.27;5.18;;;26.00;96.70;;;;;;4896715;29;20051;-79
2023/07/15 05:45:36;;;;;;;8.50;4.57;;;26.10;96.70;;;;;;4913034;29;20143;-78
2023/07/15 05:48:06;;;;;;;6.45;4.13;;;26.10;96.70;;;;;;4907044;29;20553;-80
2023/07/15 05:50:36;;;;;;;10.52;4.95;;;26.10;96.70;;;;;;4920177;29;20506;-80
2023/07/15 05:53:04;;;;;;;7.85;5.00;;;26.10;96.70;;;;;;4920110;29;20458;-81
2023/07/15 05:55:33;;;;;;;8.65;5.82;;;26.30;96.70;;;;;;4941998;29;20067;-82
2023/07/15 05:58:01;;;;;;;10.57;5.45;;;26.40;96.70;;;;;;4932163;28;20095;-81
2023/07/15 06:00:29;;;;;;;9.10;5.80;;;26.40;96.70;;;;;;4933251;29;20039;-81
2023/07/15 06:02:57;;;;;;;12.93;6.00;;;26.40;96.70;;;;;;4913174;29;20051;-81
2023/07/15 06:05:29;;;;;;;9.80;5.50;;;26.50;96.70;;;;;;4936257;29;20107;-80
2023/07/15 06:07:57;;;;;;;13.40;6.80;;;26.60;96.70;;;;;;4945315;28;20078;-81
2023/07/15 06:10:24;;;;;;;9.80;5.95;;;26.70;96.70;;;;;;4940528;29;20043;-80
2023/07/15 06:12:52;;;;;;;11.65;6.75;;;26.70;96.70;;;;;;4935288;29;20442;-82
2023/07/15 06:15:20;;;;;;;12.10;6.82;;;26.80;96.70;;;;;;4898918;29;20044;-80
2023/07/15 06:17:48;;;;;;;11.02;7.57;;;26.70;96.70;;;;;;4938319;28;20118;-80
2023/07/15 06:20:18;;;;;;;13.40;7.25;;;26.70;96.70;;;;;;4930619;29;20043;-81
2023/07/15 06:22:47;;;;;;;14.63;8.48;;;26.70;96.70;;;;;;4919221;29;20070;-80
2023/07/15 06:25:17;;;;;;;18.90;9.77;;;26.70;96.70;;;;;;4916632;29;20055;-81
2023/07/15 06:27:45;;;;;;;23.55;10.25;;;26.70;96.70;;;;;;4928156;29;20064;-81
2023/07/15 06:30:13;;;;;;;26.90;11.02;;;26.70;96.70;;;;;;4927582;29;20414;-80
2023/07/15 06:32:41;;;;;;;22.60;10.52;;;26.70;96.70;;;;;;4915706;29;20051;-80
2023/07/15 06:35:09;;;;;;;26.95;12.00;;;26.80;96.70;;;;;;4931392;29;20490;-80
2023/07/15 06:37:36;;;;;;;25.17;11.55;;;26.70;96.70;;;;;;4922551;29;20071;-80
2023/07/15 06:40:07;;;;;;;30.52;13.68;;;26.60;96.70;;;;;;4911589;29;20430;-81
2023/07/15 06:42:39;;;;;;;28.40;13.07;;;26.70;96.70;;;;;;4897375;29;20418;-80
2023/07/15 06:45:07;;;;;;;30.55;13.18;;;26.60;96.70;;;;;;4921208;29;20051;-81
2023/07/15 06:47:35;;;;;;;36.22;14.07;;;26.60;96.70;;;;;;4899944;29;20502;-81
2023/07/15 06:50:04;;;;;;;32.80;13.75;;;26.60;96.70;;;;;;4917049;29;20493;-81
2023/07/15 06:52:32;;;;;;;30.88;15.75;;;26.80;96.70;;;;;;4920641;29;20048;-80
2023/07/15 06:55:32;;;;;;;28.23;15.13;;;26.90;96.70;;;;;;4929272;29;20051;-81
2023/07/15 06:58:03;;;;;;;32.30;14.93;;;26.80;96.70;;;;;;4836054;29;20057;-81
2023/07/15 07:00:31;;;;;;;30.33;14.45;;;26.80;96.70;;;;;;4850856;29;20073;-81
2023/07/15 07:02:59;;;;;;;27.98;13.48;;;26.80;96.70;;;;;;4820818;29;20080;-80
2023/07/15 07:05:27;;;;;;;20.70;12.52;;;26.90;96.70;;;;;;4835879;29;20050;-80
2023/07/15 07:07:55;;;;;;;23.35;12.48;;;26.90;96.70;;;;;;4835502;29;20765;-81
2023/07/15 07:10:23;;;;;;;23.45;13.65;;;27.00;96.70;;;;;;4836343;29;20114;-80
2023/07/15 07:12:51;;;;;;;23.85;13.02;;;26.90;96.70;;;;;;4850877;29;20061;-81
2023/07/15 07:15:21;;;;;;;25.33;12.07;;;26.90;96.70;;;;;;4850698;29;20370;-81
2023/07/15 07:17:50;;;;;;;21.52;12.25;;;27.10;96.70;;;;;;4835227;29;20065;-81
2023/07/15 07:20:19;;;;;;;20.60;12.73;;;27.10;96.70;;;;;;4850737;29;20059;-80
2023/07/15 07:22:49;;;;;;;22.25;11.23;;;27.20;96.70;;;;;;4819846;29;20483;-79
2023/07/15 07:25:17;;;;;;;25.30;12.85;;;27.20;96.70;;;;;;4850254;29;20081;-80
2023/07/15 07:27:47;;;;;;;21.88;12.30;;;27.00;96.70;;;;;;4850351;29;20049;-81
2023/07/15 07:30:15;;;;;;;19.83;11.73;;;27.00;96.70;;;;;;4820197;29;20509;-81
2023/07/15 07:33:08;;;;;;;22.17;12.55;;;27.20;96.70;;;;;;4835249;29;20073;-81
2023/07/15 07:35:36;;;;;;;25.77;11.85;;;27.20;96.70;;;;;;4827788;29;20182;-81
2023/07/15 07:38:04;;;;;;;20.67;11.93;;;27.30;96.70;;;;;;4850386;29;20053;-81
2023/07/15 07:40:34;;;;;;;19.23;10.80;;;27.40;96.70;;;;;;4835350;29;20057;-80
2023/07/15 07:43:04;;;;;;;17.58;11.65;;;27.50;96.70;;;;;;4835264;29;20057;-81
2023/07/15 07:45:37;;;;;;;20.20;11.70;;;27.60;96.70;;;;;;4835833;29;20445;-81
2023/07/15 07:48:05;;;;;;;20.13;11.57;;;27.70;96.70;;;;;;4835100;29;20614;-79
2023/07/15 07:50:36;;;;;;;23.83;12.27;;;27.60;96.70;;;;;;4850185;29;20060;-81
2023/07/15 07:53:04;;;;;;;22.40;12.38;;;27.60;96.70;;;;;;4835457;29;20064;-81
2023/07/15 07:55:32;;;;;;;14.55;10.43;;;27.70;96.70;;;;;;4820483;29;20528;-80
2023/07/15 07:58:01;;;;;;;16.98;10.18;;;27.80;96.70;;;;;;4835828;29;20060;-81
2023/07/15 08:00:31;;;;;;;20.58;11.23;;;28.00;96.70;;;;;;4851875;29;20060;-80
2023/07/15 08:03:00;;;;;;;20.00;11.70;;;28.10;96.70;;;;;;4849672;29;20105;-82
2023/07/15 08:05:28;;;;;;;20.42;11.63;;;28.10;96.70;;;;;;4835056;29;20065;-81
2023/07/15 08:07:57;;;;;;;17.80;11.25;;;28.10;96.70;;;;;;4849678;29;20049;-80
2023/07/15 08:10:26;;;;;;;22.85;11.50;;;28.10;96.70;;;;;;4849975;29;20064;-80
2023/07/15 08:12:53;;;;;;;18.27;11.02;;;28.00;96.70;;;;;;4819380;29;20069;-81
2023/07/15 08:15:23;;;;;;;17.27;9.75;;;28.10;96.70;;;;;;4831249;29;20095;-79
2023/07/15 08:17:53;;;;;;;20.45;10.68;;;28.10;96.70;;;;;;4834044;29;20080;-80
2023/07/15 08:20:21;;;;;;;21.23;10.63;;;28.20;96.70;;;;;;4819780;29;20579;-80
2023/07/15 08:22:50;;;;;;;17.30;10.10;;;28.30;96.70;;;;;;4834700;29;20061;-80
2023/07/15 08:25:21;;;;;;;15.32;8.48;;;28.30;96.70;;;;;;4864685;29;20105;-80
2023/07/15 08:27:49;;;;;;;17.80;9.43;;;28.40;96.70;;;;;;4859454;29;20868;-82
2023/07/15 08:30:40;;;;;;;17.33;9.38;;;28.50;96.70;;;;;;4851382;29;20049;-82
2023/07/15 08:33:08;;;;;;;19.20;9.43;;;28.60;96.70;;;;;;4840852;29;20053;-82
2023/07/15 08:35:36;;;;;;;17.27;8.93;;;28.60;96.70;;;;;;4851888;29;20092;-82
2023/07/15 08:38:04;;;;;;;16.30;8.88;;;28.60;96.70;;;;;;4860619;29;20045;-84
2023/07/15 08:41:22;;;;;;;17.95;9.18;;;28.60;96.70;;;;;;4896066;29;20139;-86
2023/07/15 08:43:50;;;;;;;;;;;28.70;96.70;;;;;;4931786;29;20047;-85
2023/07/15 08:46:26;;;;;;;12.27;8.57;;;28.80;96.70;;;;;;4913658;29;19933;-86
2023/07/15 08:48:55;;;;;;;15.27;8.67;;;28.80;96.70;;;;;;4913667;29;20079;-87
2023/07/15 08:51:26;;;;;;;12.55;7.53;;;28.90;96.70;;;;;;4931003;29;20046;-87
2023/07/15 08:53:56;;;;;;;17.95;9.10;;;29.00;96.70;;;;;;4922332;29;20063;-86
2023/07/15 08:56:26;;;;;;;14.70;8.73;;;29.10;96.70;;;;;;4906421;29;20051;-84
2023/07/15 08:58:54;;;;;;;15.30;7.53;;;29.20;96.70;;;;;;4932111;29;20055;-82
2023/07/15 09:01:23;;;;;;;11.35;7.85;;;29.20;96.70;;;;;;4916706;29;20048;-82
2023/07/15 09:03:51;;;;;;;13.85;8.40;;;29.20;96.70;;;;;;4912481;29;20062;-82
2023/07/15 09:06:20;;;;;;;19.90;10.38;;;29.30;96.70;;;;;;4936929;29;20071;-82
2023/07/15 09:08:50;;;;;;;13.68;8.38;;;29.40;96.70;;;;;;4927607;29;20161;-83
2023/07/15 09:11:19;;;;;;;13.65;8.40;;;29.40;96.70;;;;;;4929995;29;20055;-83
2023/07/15 09:13:48;;;;;;;12.65;8.32;;;29.40;96.70;;;;;;4929389;29;20110;-82
2023/07/15 09:16:17;;;;;;;14.93;8.73;;;29.60;96.70;;;;;;4943491;29;20051;-82
2023/07/15 09:18:46;;;;;;;13.18;7.80;;;29.70;96.70;;;;;;4898110;29;20043;-83
2023/07/15 09:21:16;;;;;;;13.75;7.72;;;29.80;96.70;;;;;;4937763;29;20054;-80
2023/07/15 09:23:45;;;;;;;14.68;7.65;;;29.90;96.70;;;;;;4918665;29;20059;-82
2023/07/15 09:26:14;;;;;;;15.40;8.95;;;29.90;96.70;;;;;;4927808;29;20402;-82
2023/07/15 09:28:48;;;;;;;14.45;8.63;;;30.00;96.70;;;;;;4913908;29;20055;-81
2023/07/15 09:31:23;;;;;;;15.80;10.48;;;30.00;96.70;;;;;;4912373;29;20125;-81
2023/07/15 09:34:02;;;;;;;17.60;8.70;;;30.00;96.70;;;;;;4901921;29;20147;-80
2023/07/15 09:36:34;;;;;;;12.15;7.95;;;30.00;96.70;;;;;;4926332;29;20039;-80
2023/07/15 09:39:10;;;;;;;12.70;8.20;;;30.10;96.70;;;;;;4903199;29;20574;-80
2023/07/15 09:41:38;;;;;;;15.48;8.52;;;30.20;96.70;;;;;;4925200;29;20048;-81
2023/07/15 09:44:08;;;;;;;12.68;8.43;;;30.40;96.70;;;;;;4893355;29;20040;-81
2023/07/15 09:46:39;;;;;;;13.30;7.60;;;30.50;96.70;;;;;;4926697;29;20047;-80
2023/07/15 09:49:07;;;;;;;14.15;7.57;;;30.60;96.70;;;;;;4915461;29;20043;-80
2023/07/15 09:51:36;;;;;;;14.82;7.90;;;30.60;96.70;;;;;;4926140;29;21310;-79
2023/07/15 09:54:05;;;;;;;11.13;7.60;;;30.60;96.70;;;;;;4910655;29;20059;-80
2023/07/15 09:56:37;;;;;;;11.68;7.53;;;30.60;96.70;;;;;;4901603;29;20118;-78
2023/07/15 09:59:14;;;;;;;13.77;7.95;;;30.70;96.70;;;;;;4915893;29;20051;-79
2023/07/15 10:01:46;;;;;;;13.20;6.97;;;30.80;96.70;;;;;;4928391;29;20043;-77
2023/07/15 10:04:22;;;;;;;12.40;7.97;;;30.90;96.70;;;;;;4912662;29;20434;-78
2023/07/15 10:06:51;;;;;;;14.93;7.55;;;31.10;96.70;;;;;;4929726;29;20499;-78
2023/07/15 10:09:20;;;;;;;12.77;7.30;;;31.10;96.70;;;;;;4929406;29;20058;-77
2023/07/15 10:11:51;;;;;;;13.35;7.30;;;31.20;96.70;;;;;;4922421;29;20158;-80
2023/07/15 10:14:22;;;;;;;12.25;7.43;;;31.30;96.70;;;;;;4927425;29;20082;-79
2023/07/15 10:17:09;;;;;;;12.55;8.30;;;31.30;96.70;;;;;;4926974;29;20052;-80
2023/07/15 10:19:42;;;;;;;13.68;7.40;;;31.30;96.70;;;;;;4924210;29;20402;-79
2023/07/15 10:22:11;;;;;;;15.13;8.32;;;31.40;96.70;;;;;;4929870;29;20043;-79
2023/07/15 10:24:42;;;;;;;11.00;7.15;;;31.50;96.70;;;;;;4939665;29;20512;-79
2023/07/15 10:27:11;;;;;;;12.43;6.97;;;31.50;96.70;;;;;;4918766;29;20051;-80
2023/07/15 10:29:41;;;;;;;10.45;6.82;;;31.50;96.70;;;;;;4903946;29;20046;-79
2023/07/15 10:32:12;;;;;;;14.75;6.97;;;31.80;96.70;;;;;;4913119;29;20487;-80
2023/07/15 10:34:49;;;;;;;12.45;7.30;;;31.90;96.70;;;;;;4920677;29;20119;-80
2023/07/15 10:37:18;;;;;;;12.38;7.00;;;31.90;96.70;;;;;;4905031;29;20469;-79
2023/07/15 10:39:47;;;;;;;11.23;7.13;;;32.00;96.70;;;;;;4922883;29;20063;-79
2023/07/15 10:42:17;;;;;;;12.18;6.30;;;32.20;96.70;;;;;;4927128;29;20047;-79
2023/07/15 10:44:54;;;;;;;11.98;6.72;;;32.30;96.70;;;;;;4912193;29;20090;-79
2023/07/15 10:47:22;;;;;;;14.52;6.93;;;32.40;96.70;;;;;;4928648;29;20063;-79
2023/07/15 10:49:51;;;;;;;11.90;6.60;;;32.40;96.70;;;;;;4909532;29;20498;-79
2023/07/15 10:52:23;;;;;;;11.18;6.05;;;32.50;96.70;;;;;;4919669;29;20056;-81
2023/07/15 10:54:54;;;;;;;11.80;6.25;;;32.50;96.70;;;;;;4911900;29;20079;-79
2023/07/15 10:57:27;;;;;;;10.20;6.32;;;32.60;96.70;;;;;;4903029;29;20062;-79
2023/07/15 11:00:10;;;;;;;14.30;6.20;;;32.60;96.70;;;;;;4912960;29;20461;-79
2023/07/15 11:02:39;;;;;;;9.88;5.78;;;32.80;96.70;;;;;;4911582;29;20142;-79
2023/07/15 11:05:08;;;;;;;9.65;5.57;;;32.80;96.70;;;;;;4904396;29;20501;-78
2023/07/15 11:07:38;;;;;;;10.98;6.25;;;32.80;96.70;;;;;;4914567;29;20049;-79
2023/07/15 11:10:07;;;;;;;10.05;5.63;;;32.90;96.70;;;;;;4912877;29;20055;-79
2023/07/15 11:12:35;;;;;;;10.50;5.72;;;33.00;96.70;;;;;;4911986;29;20043;-79
2023/07/15 11:15:04;;;;;;;9.57;5.47;;;33.10;96.70;;;;;;4928017;29;20051;-79
2023/07/15 11:17:40;;;;;;;7.70;5.68;;;33.10;96.70;;;;;;4928585;29;20055;-79
2023/07/15 11:20:12;;;;;;;7.68;5.30;;;33.30;96.70;;;;;;4911508;29;20055;-79
2023/07/15 11:22:41;;;;;;;11.02;6.07;;;33.40;96.70;;;;;;4928199;29;20058;-79
2023/07/15 11:25:13;;;;;;;8.95;5.32;;;33.50;96.70;;;;;;4928103;29;20135;-78
2023/07/15 11:27:42;;;;;;;7.25;5.03;;;33.50;96.70;;;;;;4928255;29;20051;-79
2023/07/15 11:30:11;;;;;;;9.88;5.28;;;33.70;96.70;;;;;;4927682;29;20082;-79
2023/07/15 11:32:40;;;;;;;7.97;5.32;;;33.80;96.70;;;;;;4927875;29;20047;-79
2023/07/15 11:35:13;;;;;;;8.68;5.35;;;33.80;96.70;;;;;;4911579;29;20597;-79
2023/07/15 11:37:44;;;;;;;8.70;5.45;;;33.80;96.70;;;;;;4920955;29;20553;-79
2023/07/15 11:40:15;;;;;;;13.95;5.63;;;33.90;96.70;;;;;;4911209;29;20063;-78
2023/07/15 11:42:43;;;;;;;7.03;4.88;;;33.80;96.70;;;;;;4928384;29;20456;-79
2023/07/15 11:45:11;;;;;;;10.70;4.80;;;33.90;96.70;;;;;;4921640;29;20051;-79
2023/07/15 11:47:43;;;;;;;7.63;5.38;;;34.00;96.70;;;;;;4927714;29;20289;-79
2023/07/15 11:50:13;;;;;;;13.40;6.35;;;34.10;96.70;;;;;;4910774;29;20052;-79
2023/07/15 11:52:43;;;;;;;10.25;5.30;;;34.30;96.70;;;;;;4927914;29;20138;-78
2023/07/15 11:55:11;;;;;;;8.32;5.35;;;34.40;96.70;;;;;;4927843;29;20054;-79
2023/07/15 11:57:43;;;;;;;9.02;5.57;;;34.40;96.70;;;;;;4927840;29;20063;-79
2023/07/15 12:00:25;;;;;;;7.18;5.70;;;34.50;96.70;;;;;;4927088;29;20043;-77
2023/07/15 12:03:14;;;;;;;12.52;5.10;;;34.60;96.70;;;;;;4920402;29;20060;-79
2023/07/15 12:05:42;;;;;;;7.97;5.30;;;34.60;96.70;;;;;;4901780;29;20056;-79
2023/07/15 12:08:14;;;;;;;8.93;5.43;;;34.50;96.70;;;;;;4925345;29;20043;-78
2023/07/15 12:10:50;;;;;;;7.68;4.90;;;34.60;96.70;;;;;;4917354;29;20078;-79
2023/07/15 12:13:18;;;;;;;7.70;5.35;;;34.70;96.70;;;;;;4927526;29;20047;-81
2023/07/15 12:15:46;;;;;;;8.20;4.57;;;34.80;96.70;;;;;;4926987;29;20477;-79
2023/07/15 12:18:16;;;;;;;6.57;4.68;;;34.80;96.70;;;;;;4926988;29;20039;-78
2023/07/15 12:20:44;;;;;;;7.20;4.32;;;34.70;96.70;;;;;;4910787;29;20071;-79
2023/07/15 12:23:13;;;;;;;7.65;4.35;;;34.70;96.70;;;;;;4917739;29;20142;-79
2023/07/15 12:25:41;;;;;;;7.70;4.40;;;34.70;96.70;;;;;;4915319;29;20058;-80
2023/07/15 12:28:09;;;;;;;7.90;4.38;;;34.60;96.70;;;;;;4927781;29;20094;-80
2023/07/15 12:30:38;;;;;;;8.25;4.53;;;34.70;96.70;;;;;;4929366;29;20054;-80
2023/07/15 12:33:06;;;;;;;8.65;4.35;;;34.70;96.70;;;;;;4917524;29;20483;-80
2023/07/15 12:35:36;;;;;;;10.02;5.00;;;34.80;96.70;;;;;;4927644;29;20444;-80
2023/07/15 12:38:05;;;;;;;9.40;5.57;;;34.80;96.70;;;;;;4927761;29;20044;-79
2023/07/15 12:40:33;;;;;;;7.10;4.60;;;35.00;96.70;;;;;;4927296;29;20044;-79
2023/07/15 12:43:02;;;;;;;7.18;4.43;;;35.00;96.70;;;;;;4922340;29;20054;-79
2023/07/15 12:45:30;;;;;;;6.15;4.32;;;35.00;96.70;;;;;;4924009;29;20055;-78
2023/07/15 12:47:58;;;;;;;6.90;3.80;;;35.10;96.70;;;;;;4917828;29;20083;-81
2023/07/15 12:50:26;;;;;;;7.22;4.50;;;35.20;96.70;;;;;;4918728;29;20051;-79
2023/07/15 12:52:55;;;;;;;8.05;4.68;;;35.20;96.70;;;;;;4899468;29;20048;-80
2023/07/15 12:55:23;;;;;;;8.30;4.50;;;35.20;96.70;;;;;;4917530;29;20726;-79
2023/07/15 12:57:52;;;;;;;9.65;4.45;;;35.30;96.70;;;;;;4918331;29;20052;-82
2023/07/15 13:00:20;;;;;;;9.13;4.80;;;35.40;96.70;;;;;;4910467;29;20048;-81
2023/07/15 13:02:49;;;;;;;8.80;5.00;;;35.60;96.70;;;;;;4928008;29;20103;-80
2023/07/15 13:05:18;;;;;;;8.52;4.63;;;35.50;96.70;;;;;;4904399;29;20054;-79
2023/07/15 13:07:46;;;;;;;7.68;4.65;;;35.40;96.70;;;;;;4898996;29;20048;-81
2023/07/15 13:10:16;;;;;;;7.18;4.03;;;35.50;96.70;;;;;;4925301;29;20035;-82
2023/07/15 13:12:44;;;;;;;7.70;4.47;;;35.60;96.70;;;;;;4926636;29;20040;-81
2023/07/15 13:15:12;;;;;;;5.93;4.05;;;35.70;96.70;;;;;;4894539;29;20134;-79
2023/07/15 13:17:41;;;;;;;7.70;4.72;;;36.00;96.70;;;;;;4913734;29;20166;-79
2023/07/15 13:20:10;;;;;;;6.95;4.10;;;36.20;96.70;;;;;;4909911;29;20132;-79
2023/07/15 13:22:38;;;;;;;8.38;4.35;;;36.20;96.70;;;;;;4913362;29;20174;-79
2023/07/15 13:25:07;;;;;;;6.75;4.03;;;36.30;96.70;;;;;;4914668;29;20166;-80
2023/07/15 13:27:39;;;;;;;7.53;4.45;;;36.60;96.70;;;;;;4907483;29;20498;-79
2023/07/15 13:30:08;;;;;;;6.65;3.88;;;36.80;96.70;;;;;;4909386;29;20470;-79
2023/07/15 13:32:37;;;;;;;8.32;4.95;;;36.80;96.70;;;;;;4924967;29;20040;-79
2023/07/15 13:35:06;;;;;;;8.98;4.47;;;36.80;96.70;;;;;;4911358;29;20502;-79
2023/07/15 13:37:33;;;;;;;10.43;4.70;;;36.70;96.70;;;;;;4912696;29;20486;-80
2023/07/15 13:40:02;;;;;;;8.45;4.85;;;36.70;96.70;;;;;;4898892;29;20142;-82
2023/07/15 13:42:31;;;;;;;10.52;5.00;;;37.10;96.70;;;;;;4923036;29;20844;-79
2023/07/15 13:45:00;;;;;;;6.57;4.72;;;37.00;96.70;;;;;;4926778;29;20082;-82
2023/07/15 13:47:28;;;;;;;9.15;5.18;;;36.90;96.70;;;;;;4901556;29;20051;-82
2023/07/15 13:49:57;;;;;;;8.63;5.32;;;37.00;96.70;;;;;;4919286;29;20429;-81
2023/07/15 13:52:26;;;;;;;9.57;5.68;;;37.10;96.70;;;;;;4917545;29;20071;-80
2023/07/15 13:54:54;;;;;;;9.57;5.00;;;37.30;96.70;;;;;;4930266;29;20946;-80
2023/07/15 13:57:22;;;;;;;7.53;4.82;;;37.40;96.70;;;;;;4929699;29;20066;-79
2023/07/15 13:59:50;;;;;;;8.30;5.35;;;37.20;96.70;;;;;;4922245;29;20051;-79
2023/07/15 14:02:20;;;;;;;8.98;5.18;;;37.20;96.70;;;;;;4916926;29;20091;-80
2023/07/15 14:04:48;;;;;;;7.65;4.43;;;37.40;96.70;;;;;;4925349;29;20052;-80
2023/07/15 14:07:16;;;;;;;6.65;4.68;;;37.90;96.70;;;;;;4907036;29;20040;-80
2023/07/15 14:09:44;;;;;;;8.52;4.68;;;38.10;96.70;;;;;;4903585;29;20414;-80
2023/07/15 14:12:12;;;;;;;6.40;4.93;;;38.20;96.70;;;;;;4897729;29;20048;-81
2023/07/15 14:14:40;;;;;;;6.03;4.22;;;38.00;96.70;;;;;;4929467;29;20052;-77
2023/07/15 14:17:08;;;;;;;9.50;4.47;;;37.80;96.70;;;;;;4928000;29;20066;-78
2023/07/15 14:19:38;;;;;;;6.57;4.97;;;38.10;96.70;;;;;;4941110;29;20476;-80
2023/07/15 14:22:06;;;;;;;8.45;4.57;;;38.00;96.70;;;;;;4927420;29;20043;-81
2023/07/15 14:24:44;;;;;;;7.47;4.90;;;38.00;96.70;;;;;;4915502;29;20052;-80
2023/07/15 14:27:13;;;;;;;6.18;4.63;;;38.10;96.70;;;;;;4907476;29;20142;-80
2023/07/15 14:29:41;;;;;;;9.65;5.40;;;38.40;96.70;;;;;;4905275;29;20107;-81
2023/07/15 14:32:10;;;;;;;9.57;5.00;;;38.80;96.70;;;;;;4923731;29;20503;-79
2023/07/15 14:34:40;;;;;;;9.15;5.20;;;38.80;96.70;;;;;;4929302;29;20130;-80
2023/07/15 14:37:08;;;;;;;9.68;4.70;;;38.60;96.70;;;;;;4917850;29;20134;-79
2023/07/15 14:39:36;;;;;;;9.90;4.72;;;38.70;96.70;;;;;;4920603;29;20146;-79
2023/07/15 14:42:05;;;;;;;11.18;4.47;;;38.70;96.70;;;;;;4927351;29;20497;-80
2023/07/15 14:44:33;;;;;;;9.45;4.80;;;38.90;96.70;;;;;;4927549;29;20063;-80
2023/07/15 14:47:01;;;;;;;8.00;4.63;;;38.90;96.70;;;;;;4919808;29;20051;-80
2023/07/15 14:49:30;;;;;;;8.98;5.10;;;38.60;96.70;;;;;;4917040;29;20111;-79
2023/07/15 14:51:59;;;;;;;8.50;4.60;;;38.70;96.70;;;;;;4927081;29;20056;-80
2023/07/15 14:54:27;;;;;;;11.13;5.15;;;39.00;96.70;;;;;;4927238;29;20055;-80
2023/07/15 14:56:55;;;;;;;8.75;4.68;;;39.30;96.70;;;;;;4928851;29;20587;-80
2023/07/15 14:59:24;;;;;;;8.02;5.03;;;39.20;96.70;;;;;;4904570;29;20086;-81
2023/07/15 15:01:52;;;;;;;8.45;4.68;;;39.30;96.70;;;;;;4915337;29;20040;-79
2023/07/15 15:04:20;;;;;;;10.77;5.50;;;39.30;96.70;;;;;;4912941;29;20142;-82
2023/07/15 15:06:48;;;;;;;7.72;4.43;;;39.70;96.70;;;;;;4918424;29;20426;-79
2023/07/15 15:09:20;;;;;;;12.70;5.72;;;39.90;96.70;;;;;;4919274;29;20048;-79
2023/07/15 15:11:48;;;;;;;7.90;5.32;;;39.70;96.70;;;;;;4922704;29;20062;-78
2023/07/15 15:14:18;;;;;;;7.80;4.60;;;39.90;96.70;;;;;;4928256;29;20075;-78
2023/07/15 15:16:45;;;;;;;8.35;4.40;;;40.00;96.70;;;;;;4912370;29;20068;-78
2023/07/15 15:19:13;;;;;;;9.50;5.28;;;40.00;96.70;;;;;;4933052;29;20041;-78
2023/07/15 15:21:41;;;;;;;9.45;5.28;;;40.10;96.70;;;;;;4926100;29;20860;-79
2023/07/15 15:24:11;;;;;;;7.72;5.07;;;40.30;96.70;;;;;;4920345;29;20063;-79